createdAt,value
2023-04-20T00:00:02.074Z,24.83
2023-04-20T00:00:34.126Z,24.99
2023-04-20T00:01:05.680Z,25.02
2023-04-20T00:01:37.267Z,24.87
2023-04-20T00:02:08.921Z,24.80
2023-04-20T00:02:40.861Z,24.96
2023-04-20T00:03:12.566Z,25.04
2023-04-20T00:03:44.312Z,24.83
2023-04-20T00:04:16.033Z,24.95
2023-04-20T00:04:47.727Z,25.01
2023-04-20T00:05:19.476Z,24.63
2023-04-20T00:05:51.223Z,24.73
2023-04-20T00:06:22.804Z,24.84
2023-04-20T00:06:54.377Z,24.67
2023-04-20T00:07:25.999Z,24.94
2023-04-20T00:07:57.684Z,24.98
2023-04-20T00:08:29.345Z,24.75
2023-04-20T00:09:01.284Z,24.96
2023-04-20T00:09:32.984Z,24.76
2023-04-20T00:10:04.778Z,24.79
2023-04-20T00:10:36.324Z,25.04
2023-04-20T00:11:08.043Z,24.99
2023-04-20T00:11:39.696Z,25.08
2023-04-20T00:12:11.264Z,24.96
2023-04-20T00:12:42.855Z,25.17
2023-04-20T00:13:14.428Z,25.14
2023-04-20T00:13:45.978Z,25.02
2023-04-20T00:14:17.623Z,24.92
2023-04-20T00:14:49.239Z,24.96
2023-04-20T00:15:20.834Z,25.42
2023-04-20T00:15:52.399Z,25.83
2023-04-20T00:16:24.060Z,26.51
2023-04-20T00:16:55.809Z,26.98
2023-04-20T00:17:27.548Z,27.36
2023-04-20T00:17:59.264Z,27.82
2023-04-20T00:18:30.863Z,28.20
2023-04-20T00:19:02.549Z,28.45
2023-04-20T00:19:34.216Z,28.25
2023-04-20T00:20:06.064Z,28.28
2023-04-20T00:20:37.651Z,28.44
2023-04-20T00:21:09.258Z,28.66
2023-04-20T00:21:40.875Z,28.76
2023-04-20T00:22:12.484Z,28.59
2023-04-20T00:22:44.055Z,28.79
2023-04-20T00:23:15.656Z,28.85
2023-04-20T00:23:47.474Z,29.04
2023-04-20T00:24:19.030Z,28.85
2023-04-20T00:24:50.599Z,29.01
2023-04-20T00:25:22.165Z,29.15
2023-04-20T00:25:53.816Z,29.16
2023-04-20T00:26:25.419Z,29.27
2023-04-20T00:26:57.048Z,29.37
2023-04-20T00:27:28.664Z,29.58
2023-04-20T00:28:00.216Z,29.55
2023-04-20T00:28:31.812Z,29.58
2023-04-20T00:29:03.392Z,29.49
2023-04-20T00:29:35.011Z,29.63
2023-04-20T00:30:06.932Z,29.29
2023-04-20T00:30:38.591Z,29.34
2023-04-20T00:31:10.284Z,29.34
2023-04-20T00:31:42.279Z,29.51
2023-04-20T00:32:13.943Z,29.61
2023-04-20T00:32:45.575Z,29.47
2023-04-20T00:33:17.205Z,29.56
2023-04-20T00:33:48.826Z,29.70
2023-04-20T00:34:20.577Z,29.68
2023-04-20T00:34:52.202Z,29.54
2023-04-20T00:35:23.766Z,29.26
2023-04-20T00:35:55.344Z,29.48
2023-04-20T00:36:26.912Z,29.63
2023-04-20T00:36:58.505Z,29.56
2023-04-20T00:37:30.188Z,29.68
2023-04-20T00:38:01.768Z,29.55
2023-04-20T00:38:33.363Z,29.61
2023-04-20T00:39:05.000Z,29.74
2023-04-20T00:39:36.610Z,29.93
2023-04-20T00:40:08.525Z,30.01
2023-04-20T00:40:40.097Z,30.12
2023-04-20T00:41:11.705Z,30.26
2023-04-20T00:41:43.286Z,30.32
2023-04-20T00:42:14.871Z,30.21
2023-04-20T00:42:46.444Z,30.27
2023-04-20T00:43:18.031Z,30.02
2023-04-20T00:43:50.222Z,29.85
2023-04-20T00:44:21.837Z,30.12
2023-04-20T00:44:53.513Z,29.95
2023-04-20T00:45:25.101Z,29.96
2023-04-20T00:45:56.692Z,29.97
2023-04-20T00:46:28.378Z,30.16
2023-04-20T00:47:00.092Z,30.35
2023-04-20T00:47:31.746Z,30.23
2023-04-20T00:48:03.775Z,30.18
2023-04-20T00:48:35.408Z,30.17
2023-04-20T00:49:07.048Z,30.26
2023-04-20T00:49:38.670Z,30.05
2023-04-20T00:50:10.784Z,30.09
2023-04-20T00:50:42.390Z,30.07
2023-04-20T00:51:13.967Z,30.00
2023-04-20T00:51:45.504Z,30.08
2023-04-20T00:52:17.088Z,30.51
2023-04-20T00:52:48.623Z,30.41
2023-04-20T00:53:20.475Z,30.60
2023-04-20T00:53:52.084Z,30.08
2023-04-20T00:54:23.698Z,30.21
2023-04-20T00:54:55.512Z,30.10
2023-04-20T00:55:27.156Z,30.33
2023-04-20T00:55:58.787Z,30.23
2023-04-20T00:56:30.419Z,30.37
2023-04-20T00:57:02.164Z,30.53
2023-04-20T00:57:33.787Z,30.29
2023-04-20T00:58:05.718Z,30.09
2023-04-20T00:58:37.390Z,30.00
2023-04-20T00:59:08.999Z,29.34
2023-04-20T00:59:41.173Z,29.03
2023-04-20T01:00:12.952Z,28.30
2023-04-20T01:00:44.529Z,28.14
2023-04-20T01:01:16.175Z,27.55
2023-04-20T01:01:47.853Z,27.35
2023-04-20T01:02:19.470Z,26.87
2023-04-20T01:02:51.175Z,26.63
2023-04-20T01:03:23.001Z,26.41
2023-04-20T01:03:54.738Z,26.29
2023-04-20T01:04:26.435Z,26.19
2023-04-20T01:04:58.207Z,26.02
2023-04-20T01:05:29.834Z,25.91
2023-04-20T01:06:01.628Z,25.79
2023-04-20T01:06:33.190Z,25.55
2023-04-20T01:07:04.797Z,25.66
2023-04-20T01:07:36.370Z,25.54
2023-04-20T01:08:07.988Z,25.48
2023-04-20T01:08:46.184Z,25.46
2023-04-20T01:09:17.817Z,25.40
2023-04-20T01:09:49.471Z,25.34
2023-04-20T01:10:21.039Z,25.35
2023-04-20T01:10:52.757Z,25.33
2023-04-20T01:11:24.334Z,25.29
2023-04-20T01:11:55.941Z,25.22
2023-04-20T01:12:27.611Z,25.18
2023-04-20T01:12:59.214Z,25.33
2023-04-20T01:13:30.917Z,25.26
2023-04-20T01:14:02.502Z,25.21
2023-04-20T01:14:34.083Z,25.24
2023-04-20T01:15:05.969Z,25.24
2023-04-20T01:15:37.569Z,25.27
2023-04-20T01:16:09.271Z,25.12
2023-04-20T01:16:40.870Z,25.07
2023-04-20T01:17:12.445Z,25.24
2023-04-20T01:17:44.064Z,25.25
2023-04-20T01:18:16.137Z,25.33
2023-04-20T01:18:48.165Z,25.28
2023-04-20T01:19:19.858Z,25.31
2023-04-20T01:19:51.585Z,25.11
2023-04-20T01:20:23.282Z,25.22
2023-04-20T01:20:54.842Z,25.17
2023-04-20T01:21:26.511Z,25.17
2023-04-20T01:21:58.067Z,25.23
2023-04-20T01:22:29.652Z,24.97
2023-04-20T01:23:01.312Z,25.09
2023-04-20T01:23:34.758Z,24.93
2023-04-20T01:24:06.477Z,24.99
2023-04-20T01:24:38.043Z,25.19
2023-04-20T01:25:09.842Z,25.04
2023-04-20T01:25:41.791Z,25.04
2023-04-20T01:26:14.409Z,25.07
2023-04-20T01:26:46.007Z,24.88
2023-04-20T01:27:17.560Z,25.00
2023-04-20T01:27:49.155Z,24.88
2023-04-20T01:28:20.753Z,25.03
2023-04-20T01:28:52.310Z,24.94
2023-04-20T01:29:24.564Z,25.06
2023-04-20T01:29:56.124Z,25.16
2023-04-20T01:30:27.897Z,25.18
2023-04-20T01:30:59.533Z,25.00
2023-04-20T01:31:31.275Z,25.00
2023-04-20T01:32:03.186Z,25.07
2023-04-20T01:32:34.950Z,24.97
2023-04-20T01:33:06.865Z,24.88
2023-04-20T01:33:38.617Z,25.09
2023-04-20T01:34:10.208Z,25.05
2023-04-20T01:34:41.862Z,24.98
2023-04-20T01:35:13.436Z,25.02
2023-04-20T01:35:45.133Z,25.19
2023-04-20T01:36:16.750Z,24.97
2023-04-20T01:36:48.361Z,24.90
2023-04-20T01:37:20.133Z,24.97
2023-04-20T01:37:51.774Z,25.01
2023-04-20T01:38:23.446Z,24.93
2023-04-20T01:38:55.838Z,25.09
2023-04-20T01:39:27.503Z,25.08
2023-04-20T01:39:59.181Z,25.15
2023-04-20T01:40:30.845Z,25.18
2023-04-20T01:41:03.171Z,25.30
2023-04-20T01:41:34.901Z,25.22
2023-04-20T01:42:06.607Z,25.03
2023-04-20T01:42:38.230Z,25.20
2023-04-20T01:43:09.816Z,25.30
2023-04-20T01:43:41.425Z,25.14
2023-04-20T01:44:12.972Z,25.23
2023-04-20T01:44:44.591Z,25.07
2023-04-20T01:45:16.139Z,25.13
2023-04-20T01:45:47.735Z,25.26
2023-04-20T01:46:19.330Z,25.19
2023-04-20T01:46:51.061Z,25.28
2023-04-20T01:47:22.880Z,25.05
2023-04-20T01:47:54.599Z,25.33
2023-04-20T01:48:26.179Z,25.07
2023-04-20T01:48:57.725Z,25.14
2023-04-20T01:49:29.383Z,25.03
2023-04-20T01:50:01.029Z,25.15
2023-04-20T01:50:32.782Z,25.15
2023-04-20T01:51:04.348Z,25.31
2023-04-20T01:51:36.759Z,25.27
2023-04-20T01:52:08.978Z,25.17
2023-04-20T01:52:40.548Z,25.26
2023-04-20T01:53:12.117Z,25.29
2023-04-20T01:53:43.716Z,25.37
2023-04-20T01:54:15.262Z,25.25
2023-04-20T01:54:46.842Z,25.29
2023-04-20T01:55:19.983Z,25.16
2023-04-20T01:55:51.905Z,25.33
2023-04-20T01:56:23.671Z,25.49
2023-04-20T01:56:55.347Z,25.19
2023-04-20T01:57:26.983Z,25.23
2023-04-20T01:57:58.685Z,25.30
2023-04-20T01:58:30.324Z,25.43
2023-04-20T01:59:01.974Z,25.40
2023-04-20T01:59:33.596Z,25.18
2023-04-20T02:00:05.585Z,25.23
2023-04-20T02:00:37.570Z,25.20
2023-04-20T02:01:09.247Z,25.42
2023-04-20T02:01:40.846Z,25.32
2023-04-20T02:02:12.466Z,25.36
2023-04-20T02:02:44.314Z,25.41
2023-04-20T02:03:48.695Z,25.47
2023-04-20T02:04:20.458Z,25.29
2023-04-20T02:04:51.725Z,25.44
2023-04-20T02:05:23.014Z,25.51
2023-04-20T02:05:54.342Z,25.45
2023-04-20T02:06:25.892Z,25.39
2023-04-20T02:06:57.429Z,25.32
2023-04-20T02:07:28.969Z,25.46
2023-04-20T02:08:00.591Z,25.40
2023-04-20T02:08:32.438Z,25.55
2023-04-20T02:09:04.001Z,25.57
2023-04-20T02:09:35.475Z,25.58
2023-04-20T02:10:07.189Z,25.29
2023-04-20T02:10:38.736Z,25.52
2023-04-20T02:11:10.352Z,25.27
2023-04-20T02:11:41.895Z,25.47
2023-04-20T02:12:13.331Z,25.48
2023-04-20T02:12:44.848Z,25.48
2023-04-20T02:13:16.401Z,25.65
2023-04-20T02:13:47.909Z,25.41
2023-04-20T02:14:19.406Z,25.40
2023-04-20T02:14:50.894Z,25.41
2023-04-20T02:15:22.465Z,25.38
2023-04-20T02:15:53.908Z,25.50
2023-04-20T02:16:25.576Z,25.58
2023-04-20T02:16:57.150Z,25.57
2023-04-20T02:17:28.785Z,25.34
2023-04-20T02:18:00.405Z,25.44
2023-04-20T02:18:32.043Z,25.44
2023-04-20T02:19:03.527Z,25.54
2023-04-20T02:19:35.235Z,25.70
2023-04-20T02:20:07.073Z,25.72
2023-04-20T02:20:38.724Z,25.37
2023-04-20T02:21:10.224Z,25.64
2023-04-20T02:21:41.732Z,25.59
2023-04-20T02:22:13.276Z,25.47
2023-04-20T02:22:44.860Z,25.36
2023-04-20T02:23:16.313Z,25.56
2023-04-20T02:23:47.941Z,25.57
2023-04-20T02:24:19.385Z,25.43
2023-04-20T02:24:50.932Z,25.42
2023-04-20T02:25:22.413Z,25.71
2023-04-20T02:25:53.885Z,25.46
2023-04-20T02:26:25.395Z,25.53
2023-04-20T02:26:56.931Z,25.62
2023-04-20T02:27:28.450Z,25.66
2023-04-20T02:28:00.123Z,25.56
2023-04-20T02:28:31.651Z,25.69
2023-04-20T02:29:03.215Z,25.67
2023-04-20T02:29:34.736Z,25.68
2023-04-20T02:30:06.572Z,25.61
2023-04-20T02:30:38.065Z,25.53
2023-04-20T02:31:09.656Z,25.73
2023-04-20T02:31:41.296Z,25.82
2023-04-20T02:32:12.876Z,25.60
2023-04-20T02:32:44.525Z,25.78
2023-04-20T02:33:16.034Z,25.77
2023-04-20T02:33:47.572Z,25.81
2023-04-20T02:34:19.092Z,25.51
2023-04-20T02:34:50.657Z,25.63
2023-04-20T02:35:22.234Z,25.90
2023-04-20T02:35:53.727Z,25.52
2023-04-20T02:36:25.168Z,25.78
2023-04-20T02:36:56.696Z,25.57
2023-04-20T02:37:28.224Z,25.59
2023-04-20T02:37:59.750Z,25.56
2023-04-20T02:38:31.281Z,25.50
2023-04-20T02:39:02.775Z,25.84
2023-04-20T02:39:34.317Z,25.76
2023-04-20T02:40:06.559Z,25.60
2023-04-20T02:40:38.013Z,25.85
2023-04-20T02:41:09.574Z,25.80
2023-04-20T02:41:41.119Z,25.64
2023-04-20T02:42:12.784Z,25.91
2023-04-20T02:42:44.266Z,25.80
2023-04-20T02:43:15.884Z,25.64
2023-04-20T02:43:47.375Z,25.53
2023-04-20T02:44:18.932Z,25.63
2023-04-20T02:44:50.454Z,25.82
2023-04-20T02:45:22.011Z,25.76
2023-04-20T02:45:53.480Z,25.61
2023-04-20T02:46:24.998Z,25.89
2023-04-20T02:46:56.506Z,25.84
2023-04-20T02:47:28.142Z,25.68
2023-04-20T02:47:59.861Z,25.61
2023-04-20T02:48:31.327Z,25.61
2023-04-20T02:49:02.878Z,25.70
2023-04-20T02:49:34.547Z,25.72
2023-04-20T02:50:06.369Z,25.51
2023-04-20T02:50:37.920Z,25.82
2023-04-20T02:51:09.358Z,25.62
2023-04-20T02:51:40.911Z,25.54
2023-04-20T02:52:12.472Z,25.57
2023-04-20T02:52:44.043Z,25.79
2023-04-20T02:53:15.521Z,25.84
2023-04-20T02:53:46.976Z,25.58
2023-04-20T02:54:18.477Z,25.82
2023-04-20T02:54:49.936Z,25.56
2023-04-20T02:55:21.523Z,25.89
2023-04-20T02:55:52.962Z,25.81
2023-04-20T02:56:24.519Z,25.82
2023-04-20T02:56:57.761Z,25.69
2023-04-20T02:57:29.678Z,25.86
2023-04-20T02:58:01.239Z,25.55
2023-04-20T02:58:32.750Z,25.63
2023-04-20T02:59:04.295Z,25.68
2023-04-20T02:59:35.760Z,25.59
2023-04-20T03:00:07.573Z,25.82
2023-04-20T03:00:39.357Z,25.60
2023-04-20T03:01:10.848Z,25.80
2023-04-20T03:01:42.388Z,25.73
2023-04-20T03:02:14.153Z,25.49
2023-04-20T03:02:45.876Z,25.66
2023-04-20T03:03:17.923Z,26.03
2023-04-20T03:03:49.788Z,25.60
2023-04-20T03:04:21.856Z,25.81
2023-04-20T03:04:53.583Z,25.65
2023-04-20T03:05:25.111Z,25.77
2023-04-20T03:05:56.852Z,25.81
2023-04-20T03:06:28.372Z,25.59
2023-04-20T03:06:59.931Z,25.86
2023-04-20T03:07:31.465Z,25.66
2023-04-20T03:08:02.988Z,25.94
2023-04-20T03:08:34.521Z,25.95
2023-04-20T03:09:06.221Z,25.62
2023-04-20T03:09:37.744Z,25.72
2023-04-20T03:10:09.579Z,25.92
2023-04-20T03:10:41.193Z,25.94
2023-04-20T03:11:12.713Z,26.07
2023-04-20T03:11:44.856Z,25.71
2023-04-20T03:12:16.326Z,25.88
2023-04-20T03:12:47.801Z,25.68
2023-04-20T03:13:19.325Z,25.75
2023-04-20T03:13:50.874Z,25.73
2023-04-20T03:14:22.334Z,26.00
2023-04-20T03:14:53.822Z,25.73
2023-04-20T03:15:25.400Z,25.97
2023-04-20T03:15:56.939Z,25.83
2023-04-20T03:16:28.562Z,25.88
2023-04-20T03:17:00.083Z,25.56
2023-04-20T03:17:31.681Z,25.89
2023-04-20T03:18:03.398Z,25.92
2023-04-20T03:18:34.874Z,25.72
2023-04-20T03:19:06.337Z,25.74
2023-04-20T03:19:37.829Z,26.00
2023-04-20T03:20:09.460Z,25.78
2023-04-20T03:20:40.945Z,26.04
2023-04-20T03:21:12.420Z,25.74
2023-04-20T03:21:44.414Z,25.79
2023-04-20T03:22:15.896Z,25.96
2023-04-20T03:22:47.376Z,25.71
2023-04-20T03:23:18.816Z,25.62
2023-04-20T03:23:50.175Z,25.83
2023-04-20T03:24:21.687Z,25.85
2023-04-20T03:24:53.658Z,25.91
2023-04-20T03:25:25.254Z,25.98
2023-04-20T03:25:56.814Z,25.76
2023-04-20T03:26:28.377Z,25.60
2023-04-20T03:26:59.799Z,25.74
2023-04-20T03:27:31.324Z,25.79
2023-04-20T03:28:02.819Z,25.71
2023-04-20T03:28:34.298Z,26.02
2023-04-20T03:29:05.757Z,25.66
2023-04-20T03:29:37.146Z,25.74
2023-04-20T03:30:08.967Z,26.03
2023-04-20T03:30:40.421Z,26.09
2023-04-20T03:31:11.881Z,26.11
2023-04-20T03:31:43.495Z,25.86
2023-04-20T03:32:14.990Z,25.75
2023-04-20T03:32:46.439Z,25.83
2023-04-20T03:33:17.886Z,25.78
2023-04-20T03:33:49.311Z,25.85
2023-04-20T03:34:20.753Z,25.82
2023-04-20T03:34:52.160Z,25.96
2023-04-20T03:35:23.627Z,25.86
2023-04-20T03:35:55.251Z,25.86
2023-04-20T03:36:26.714Z,26.03
2023-04-20T03:36:58.259Z,25.98
2023-04-20T03:37:29.746Z,25.91
2023-04-20T03:38:01.272Z,26.15
2023-04-20T03:38:32.684Z,26.00
2023-04-20T03:39:04.091Z,26.00
2023-04-20T03:39:35.600Z,25.91
2023-04-20T03:40:07.336Z,25.85
2023-04-20T03:40:38.782Z,26.09
2023-04-20T03:41:10.278Z,25.88
2023-04-20T03:41:41.705Z,26.24
2023-04-20T03:42:13.296Z,26.04
2023-04-20T03:42:44.739Z,26.23
2023-04-20T03:43:16.170Z,25.89
2023-04-20T03:43:47.582Z,26.27
2023-04-20T03:44:19.064Z,26.11
2023-04-20T03:44:50.469Z,25.99
2023-04-20T03:45:21.972Z,26.07
2023-04-20T03:45:53.438Z,25.91
2023-04-20T03:46:25.035Z,25.89
2023-04-20T03:46:56.685Z,26.24
2023-04-20T03:47:28.296Z,26.01
2023-04-20T03:47:59.775Z,25.98
2023-04-20T03:48:31.220Z,26.22
2023-04-20T03:49:02.659Z,26.25
2023-04-20T03:49:34.075Z,26.06
2023-04-20T03:50:05.788Z,26.15
2023-04-20T03:50:37.267Z,26.33
2023-04-20T03:51:08.720Z,26.11
2023-04-20T03:51:40.236Z,26.15
2023-04-20T03:52:11.752Z,26.09
2023-04-20T03:52:43.254Z,26.26
2023-04-20T03:53:14.741Z,26.13
2023-04-20T03:53:46.192Z,26.15
2023-04-20T03:54:17.595Z,26.49
2023-04-20T03:54:49.042Z,26.07
2023-04-20T03:55:20.497Z,26.29
2023-04-20T03:55:51.961Z,26.19
2023-04-20T03:56:23.403Z,26.36
2023-04-20T03:56:54.814Z,26.01
2023-04-20T03:57:26.262Z,26.37
2023-04-20T03:57:57.857Z,26.14
2023-04-20T03:58:29.362Z,26.17
2023-04-20T03:59:00.860Z,26.22
2023-04-20T03:59:32.320Z,26.20
2023-04-20T04:00:03.986Z,26.22
2023-04-20T04:00:35.582Z,26.24
2023-04-20T04:01:07.183Z,26.09
2023-04-20T04:01:38.658Z,26.44
2023-04-20T04:02:10.352Z,26.38
2023-04-20T04:02:42.186Z,26.23
2023-04-20T04:03:14.276Z,26.23
2023-04-20T04:03:46.302Z,26.25
2023-04-20T04:04:18.269Z,26.22
2023-04-20T04:04:50.370Z,26.26
2023-04-20T04:05:22.258Z,26.28
2023-04-20T04:05:53.784Z,26.34
2023-04-20T04:06:25.335Z,26.24
2023-04-20T04:06:56.847Z,26.29
2023-04-20T04:07:28.308Z,26.46
2023-04-20T04:07:59.827Z,26.47
2023-04-20T04:08:31.429Z,26.23
2023-04-20T04:09:02.900Z,26.55
2023-04-20T04:09:34.452Z,26.21
2023-04-20T04:10:06.262Z,26.44
2023-04-20T04:10:37.840Z,26.25
2023-04-20T04:11:09.469Z,26.29
2023-04-20T04:11:41.004Z,26.30
2023-04-20T04:12:12.494Z,26.36
2023-04-20T04:12:44.279Z,26.36
2023-04-20T04:13:15.849Z,26.35
2023-04-20T04:13:47.505Z,26.66
2023-04-20T04:14:18.941Z,26.32
2023-04-20T04:14:50.488Z,26.54
2023-04-20T04:15:21.969Z,26.38
2023-04-20T04:15:53.509Z,26.42
2023-04-20T04:16:25.139Z,26.38
2023-04-20T04:16:56.787Z,26.33
2023-04-20T04:17:28.472Z,26.43
2023-04-20T04:18:00.165Z,26.42
2023-04-20T04:18:31.881Z,26.58
2023-04-20T04:19:03.385Z,26.45
2023-04-20T04:19:34.913Z,26.61
2023-04-20T04:20:06.574Z,26.37
2023-04-20T04:20:38.085Z,26.37
2023-04-20T04:21:09.572Z,26.46
2023-04-20T04:21:41.060Z,26.47
2023-04-20T04:22:12.445Z,26.94
2023-04-20T04:22:44.034Z,26.48
2023-04-20T04:23:15.532Z,26.46
2023-04-20T04:23:47.087Z,26.79
2023-04-20T04:24:18.635Z,26.78
2023-04-20T04:24:50.133Z,26.77
2023-04-20T04:25:21.603Z,26.67
2023-04-20T04:25:53.086Z,26.49
2023-04-20T04:26:24.573Z,26.86
2023-04-20T04:26:56.660Z,26.68
2023-04-20T04:27:28.190Z,26.53
2023-04-20T04:27:59.645Z,26.47
2023-04-20T04:28:31.404Z,26.49
2023-04-20T04:29:02.877Z,26.59
2023-04-20T04:29:34.411Z,26.81
2023-04-20T04:30:06.200Z,26.44
2023-04-20T04:30:37.702Z,26.68
2023-04-20T04:31:09.197Z,26.45
2023-04-20T04:31:40.717Z,26.67
2023-04-20T04:32:12.253Z,26.72
2023-04-20T04:32:43.779Z,26.35
2023-04-20T04:33:15.238Z,26.70
2023-04-20T04:33:46.913Z,26.61
2023-04-20T04:34:18.507Z,26.70
2023-04-20T04:34:49.972Z,26.66
2023-04-20T04:35:21.468Z,26.59
2023-04-20T04:35:53.044Z,26.81
2023-04-20T04:36:24.558Z,26.76
2023-04-20T04:36:56.194Z,26.56
2023-04-20T04:37:27.786Z,26.54
2023-04-20T04:37:59.291Z,26.57
2023-04-20T04:38:30.748Z,26.75
2023-04-20T04:39:02.284Z,26.61
2023-04-20T04:39:33.870Z,26.93
2023-04-20T04:40:05.821Z,26.63
2023-04-20T04:40:37.480Z,26.74
2023-04-20T04:41:09.092Z,26.60
2023-04-20T04:41:40.782Z,26.82
2023-04-20T04:42:12.300Z,26.54
2023-04-20T04:42:43.809Z,26.64
2023-04-20T04:43:15.252Z,26.63
2023-04-20T04:43:46.724Z,26.59
2023-04-20T04:44:18.248Z,26.91
2023-04-20T04:44:49.760Z,26.68
2023-04-20T04:45:21.358Z,26.88
2023-04-20T04:45:52.864Z,26.87
2023-04-20T04:46:24.436Z,26.58
2023-04-20T04:46:55.889Z,26.50
2023-04-20T04:47:27.599Z,26.65
2023-04-20T04:47:59.224Z,26.67
2023-04-20T04:48:30.840Z,26.80
2023-04-20T04:49:02.354Z,26.63
2023-04-20T04:49:33.839Z,26.90
2023-04-20T04:50:05.584Z,26.97
2023-04-20T04:50:37.161Z,26.94
2023-04-20T04:51:08.853Z,26.73
2023-04-20T04:51:40.386Z,27.00
2023-04-20T04:52:11.864Z,26.70
2023-04-20T04:52:43.369Z,26.75
2023-04-20T04:53:14.869Z,26.53
2023-04-20T04:53:46.309Z,26.88
2023-04-20T04:54:17.766Z,26.84
2023-04-20T04:54:49.192Z,26.60
2023-04-20T04:55:20.663Z,26.92
2023-04-20T04:55:52.313Z,26.67
2023-04-20T04:56:24.032Z,26.70
2023-04-20T04:56:55.534Z,26.70
2023-04-20T04:57:27.065Z,26.55
2023-04-20T04:57:58.601Z,26.72
2023-04-20T04:58:30.112Z,26.82
2023-04-20T04:59:01.560Z,26.97
2023-04-20T04:59:33.016Z,26.92
2023-04-20T05:00:05.072Z,26.79
2023-04-20T05:00:36.570Z,26.75
2023-04-20T05:01:08.169Z,26.93
2023-04-20T05:01:39.713Z,26.73
2023-04-20T05:02:11.355Z,27.06
2023-04-20T05:02:43.074Z,27.09
2023-04-20T05:03:14.812Z,27.00
2023-04-20T05:03:46.674Z,26.71
2023-04-20T05:04:18.377Z,26.82
2023-04-20T05:04:49.969Z,26.96
2023-04-20T05:05:21.604Z,26.66
2023-04-20T05:05:53.087Z,26.91
2023-04-20T05:06:24.590Z,26.77
2023-04-20T05:06:56.174Z,26.91
2023-04-20T05:07:27.629Z,26.82
2023-04-20T05:07:59.101Z,26.70
2023-04-20T05:08:30.630Z,26.89
2023-04-20T05:09:02.092Z,27.04
2023-04-20T05:09:33.613Z,26.72
2023-04-20T05:10:05.350Z,26.63
2023-04-20T05:10:36.804Z,26.92
2023-04-20T05:11:08.355Z,26.91
2023-04-20T05:11:39.842Z,26.77
2023-04-20T05:12:11.377Z,26.64
2023-04-20T05:12:42.853Z,26.80
2023-04-20T05:13:14.353Z,26.82
2023-04-20T05:13:45.853Z,26.99
2023-04-20T05:14:17.358Z,27.08
2023-04-20T05:14:48.840Z,26.88
2023-04-20T05:15:20.288Z,26.93
2023-04-20T05:15:51.822Z,26.87
2023-04-20T05:16:23.350Z,26.91
2023-04-20T05:16:54.946Z,26.91
2023-04-20T05:17:26.394Z,27.10
2023-04-20T05:17:57.943Z,27.18
2023-04-20T05:18:29.463Z,27.21
2023-04-20T05:19:01.030Z,26.98
2023-04-20T05:19:32.475Z,27.27
2023-04-20T05:20:04.211Z,26.92
2023-04-20T05:20:35.671Z,27.03
2023-04-20T05:21:07.258Z,27.09
2023-04-20T05:21:38.715Z,27.37
2023-04-20T05:22:10.204Z,27.00
2023-04-20T05:22:41.819Z,27.21
2023-04-20T05:23:13.347Z,27.04
2023-04-20T05:23:44.825Z,27.36
2023-04-20T05:24:16.225Z,27.11
2023-04-20T05:24:47.647Z,27.28
2023-04-20T05:25:19.194Z,27.19
2023-04-20T05:25:50.628Z,27.05
2023-04-20T05:26:22.017Z,27.13
2023-04-20T05:26:53.512Z,27.31
2023-04-20T05:27:25.051Z,27.45
2023-04-20T05:27:56.547Z,26.97
2023-04-20T05:28:28.016Z,27.14
2023-04-20T05:28:59.510Z,27.26
2023-04-20T05:29:30.955Z,27.19
2023-04-20T05:30:16.674Z,27.20
2023-04-20T05:30:51.614Z,27.26
2023-04-20T05:31:23.166Z,27.30
2023-04-20T05:31:54.706Z,27.45
2023-04-20T05:32:26.199Z,27.25
2023-04-20T05:32:57.724Z,27.15
2023-04-20T05:33:29.224Z,27.64
2023-04-20T05:34:00.691Z,27.31
2023-04-20T05:34:32.106Z,27.29
2023-04-20T05:35:03.603Z,27.27
2023-04-20T05:35:35.109Z,27.26
2023-04-20T05:36:08.591Z,27.61
2023-04-20T05:36:40.130Z,27.67
2023-04-20T05:37:11.604Z,27.51
2023-04-20T05:37:43.103Z,27.42
2023-04-20T05:38:14.603Z,27.31
2023-04-20T05:38:46.127Z,27.34
2023-04-20T05:39:17.811Z,27.50
2023-04-20T05:39:49.528Z,27.50
2023-04-20T05:40:21.032Z,27.53
2023-04-20T05:40:52.506Z,27.55
2023-04-20T05:41:24.069Z,27.37
2023-04-20T05:41:55.582Z,27.37
2023-04-20T05:42:27.144Z,27.27
2023-04-20T05:42:58.701Z,27.63
2023-04-20T05:43:30.277Z,27.56
2023-04-20T05:44:01.725Z,27.67
2023-04-20T05:44:33.165Z,27.55
2023-04-20T05:45:05.080Z,27.42
2023-04-20T05:45:36.566Z,27.58
2023-04-20T05:46:08.160Z,27.62
2023-04-20T05:46:39.651Z,27.62
2023-04-20T05:47:11.124Z,27.63
2023-04-20T05:47:42.712Z,27.36
2023-04-20T05:48:14.260Z,27.59
2023-04-20T05:48:45.753Z,27.47
2023-04-20T05:49:17.433Z,27.36
2023-04-20T05:49:49.090Z,27.31
2023-04-20T05:50:20.638Z,27.31
2023-04-20T05:50:52.136Z,27.37
2023-04-20T05:51:23.560Z,27.46
2023-04-20T05:51:54.994Z,27.68
2023-04-20T05:52:26.519Z,27.38
2023-04-20T05:52:58.135Z,27.29
2023-04-20T05:53:29.628Z,27.34
2023-04-20T05:54:01.128Z,27.44
2023-04-20T05:54:32.685Z,27.55
2023-04-20T05:55:04.315Z,27.46
2023-04-20T05:55:35.790Z,27.59
2023-04-20T05:56:07.733Z,27.46
2023-04-20T05:56:39.201Z,27.42
2023-04-20T05:57:10.753Z,27.47
2023-04-20T05:57:42.241Z,27.43
2023-04-20T05:58:14.067Z,27.84
2023-04-20T05:58:45.688Z,27.85
2023-04-20T05:59:17.465Z,27.75
2023-04-20T05:59:49.169Z,27.47
2023-04-20T06:00:20.672Z,27.72
2023-04-20T06:00:52.297Z,27.57
2023-04-20T06:01:23.767Z,27.65
2023-04-20T06:01:55.329Z,27.45
2023-04-20T06:02:26.916Z,27.53
2023-04-20T06:02:58.521Z,27.41
2023-04-20T06:03:30.265Z,27.42
2023-04-20T06:04:02.328Z,27.38
2023-04-20T06:04:34.208Z,27.43
2023-04-20T06:05:06.157Z,27.66
2023-04-20T06:05:38.004Z,27.73
2023-04-20T06:06:09.590Z,27.51
2023-04-20T06:06:41.081Z,27.65
2023-04-20T06:07:12.472Z,27.67
2023-04-20T06:07:43.984Z,27.70
2023-04-20T06:08:15.400Z,27.46
2023-04-20T06:08:46.868Z,27.49
2023-04-20T06:09:18.684Z,27.71
2023-04-20T06:09:50.313Z,27.53
2023-04-20T06:10:21.829Z,27.46
2023-04-20T06:10:54.197Z,27.58
2023-04-20T06:11:25.748Z,27.65
2023-04-20T06:11:57.215Z,27.31
2023-04-20T06:12:28.794Z,27.55
2023-04-20T06:13:00.266Z,27.67
2023-04-20T06:13:31.708Z,27.56
2023-04-20T06:14:03.216Z,27.47
2023-04-20T06:14:34.669Z,27.45
2023-04-20T06:15:06.437Z,27.46
2023-04-20T06:15:37.999Z,27.74
2023-04-20T06:16:09.715Z,27.63
2023-04-20T06:16:41.332Z,27.57
2023-04-20T06:17:12.778Z,27.76
2023-04-20T06:17:44.287Z,27.45
2023-04-20T06:18:15.979Z,27.40
2023-04-20T06:18:47.389Z,27.49
2023-04-20T06:19:18.907Z,27.73
2023-04-20T06:19:50.472Z,27.66
2023-04-20T06:20:22.017Z,27.52
2023-04-20T06:20:53.519Z,27.50
2023-04-20T06:21:25.011Z,27.68
2023-04-20T06:21:57.131Z,27.46
2023-04-20T06:22:29.343Z,27.50
2023-04-20T06:23:00.824Z,27.84
2023-04-20T06:23:32.434Z,27.81
2023-04-20T06:24:04.222Z,27.42
2023-04-20T06:24:35.875Z,27.49
2023-04-20T06:25:07.638Z,27.39
2023-04-20T06:25:39.248Z,27.84
2023-04-20T06:26:10.868Z,27.71
2023-04-20T06:26:42.317Z,27.49
2023-04-20T06:27:13.945Z,27.52
2023-04-20T06:27:45.427Z,27.48
2023-04-20T06:28:16.963Z,27.45
2023-04-20T06:28:48.427Z,27.61
2023-04-20T06:29:19.943Z,27.50
2023-04-20T06:29:51.461Z,27.71
2023-04-20T06:30:23.066Z,27.83
2023-04-20T06:30:54.553Z,27.77
2023-04-20T06:31:26.144Z,27.87
2023-04-20T06:31:57.645Z,27.64
2023-04-20T06:32:29.157Z,27.74
2023-04-20T06:33:01.018Z,27.57
2023-04-20T06:33:32.586Z,27.61
2023-04-20T06:34:04.141Z,27.60
2023-04-20T06:34:35.660Z,27.52
2023-04-20T06:35:07.325Z,27.51
2023-04-20T06:35:39.511Z,27.58
2023-04-20T06:36:10.982Z,27.49
2023-04-20T06:36:42.826Z,27.79
2023-04-20T06:37:14.344Z,27.59
2023-04-20T06:37:45.832Z,27.88
2023-04-20T06:38:17.289Z,27.54
2023-04-20T06:38:48.805Z,27.52
2023-04-20T06:39:20.379Z,27.73
2023-04-20T06:39:54.961Z,27.78
2023-04-20T06:40:26.856Z,27.42
2023-04-20T06:40:58.351Z,27.60
2023-04-20T06:41:30.013Z,27.63
2023-04-20T06:42:01.571Z,27.82
2023-04-20T06:42:33.116Z,27.76
2023-04-20T06:43:04.655Z,27.77
2023-04-20T06:43:36.156Z,27.83
2023-04-20T06:44:07.689Z,27.68
2023-04-20T06:44:39.316Z,27.78
2023-04-20T06:45:11.038Z,27.64
2023-04-20T06:45:42.488Z,27.78
2023-04-20T06:46:14.085Z,27.70
2023-04-20T06:46:45.809Z,27.80
2023-04-20T06:47:17.322Z,27.71
2023-04-20T06:47:48.909Z,27.56